Terminal Aerodrome Forecast
Issued by NWS Tuscon, AZ

Home | Current Version | Previous Version | Text Only | Print | Product List | Glossary On
Versions: 1 2 3 4 5 6 7 8 9 10 11 12 13 14 15 16
000
FTUS45 KTWC 111100
TAFDUG
TAF
KDUG 111135Z 1112/1212 24008KT P6SM SCT110 BKN180
     FM111800 20006KT P6SM SCT050 BKN100
     FM112200 27011KT P6SM VCTS BKN050CB BKN100
     FM120100 18012KT P6SM VCSH BKN050 BKN100
     FM120600 VRB04KT P6SM SCT060 BKN110=

USA.gov is the U.S. government's official web portal to all federal, state and local government web resources and services.